createdAt,value
2019-02-24T00:00:06.366Z,1033.70
2019-02-24T00:01:06.253Z,1033.71
2019-02-24T00:02:06.243Z,1033.68
2019-02-24T00:03:06.252Z,1033.74
2019-02-24T00:04:06.127Z,1033.72
2019-02-24T00:05:06.120Z,1033.75
2019-02-24T00:06:06.009Z,1033.76
2019-02-24T00:07:06.000Z,1033.83
2019-02-24T00:08:05.995Z,1033.83
2019-02-24T00:09:05.882Z,1033.85
2019-02-24T00:10:05.899Z,1033.85
2019-02-24T00:11:05.758Z,1033.84
2019-02-24T00:12:05.762Z,1033.88
2019-02-24T00:13:05.647Z,1033.95
2019-02-24T00:14:05.654Z,1033.91
2019-02-24T00:15:05.650Z,1033.89
2019-02-24T00:16:05.521Z,1033.90
2019-02-24T00:17:05.520Z,1033.91
2019-02-24T00:18:05.410Z,1033.88
2019-02-24T00:19:05.404Z,1033.89
2019-02-24T00:20:05.407Z,1033.91
2019-02-24T00:21:05.277Z,1033.88
2019-02-24T00:22:05.295Z,1033.90
2019-02-24T00:23:05.164Z,1033.86
2019-02-24T00:24:05.161Z,1033.85
2019-02-24T00:25:05.159Z,1033.83
2019-02-24T00:26:05.049Z,1033.82
2019-02-24T00:27:05.035Z,1033.79
2019-02-24T00:28:07.123Z,1033.77
2019-02-24T00:29:04.921Z,1033.81
2019-02-24T00:30:04.797Z,1033.78
2019-02-24T00:31:04.795Z,1033.73
2019-02-24T00:32:04.796Z,1033.78
2019-02-24T00:33:04.672Z,1033.78
2019-02-24T00:34:04.686Z,1033.82
2019-02-24T00:35:04.640Z,1033.81
2019-02-24T00:36:04.569Z,1033.87
2019-02-24T00:37:04.432Z,1033.79
2019-02-24T00:38:04.434Z,1033.79
2019-02-24T00:39:04.434Z,1033.82
2019-02-24T00:40:04.313Z,1033.83
2019-02-24T00:41:04.312Z,1033.83
2019-02-24T00:42:04.205Z,1033.84
2019-02-24T00:43:04.196Z,1033.83
2019-02-24T00:44:04.193Z,1033.81
2019-02-24T00:45:04.075Z,1033.81
2019-02-24T00:46:04.079Z,1033.78
2019-02-24T00:47:03.949Z,1033.78
2019-02-24T00:48:03.955Z,1033.81
2019-02-24T00:49:03.834Z,1033.75
2019-02-24T00:50:03.833Z,1033.76
2019-02-24T00:51:03.831Z,1033.72
2019-02-24T00:52:03.720Z,1033.72
2019-02-24T00:53:03.714Z,1033.72
2019-02-24T00:54:03.590Z,1033.69
2019-02-24T00:55:03.604Z,1033.71
2019-02-24T00:56:03.602Z,1033.68
2019-02-24T00:57:03.468Z,1033.66
2019-02-24T00:58:03.474Z,1033.62
2019-02-24T00:59:03.349Z,1033.66
2019-02-24T01:00:03.347Z,1033.67
2019-02-24T01:01:03.236Z,1033.61
2019-02-24T01:02:03.229Z,1033.61
2019-02-24T01:03:03.230Z,1033.57
2019-02-24T01:04:03.114Z,1033.60
2019-02-24T01:05:03.108Z,1033.55
2019-02-24T01:06:03.070Z,1033.56
2019-02-24T01:07:02.988Z,1033.53
2019-02-24T01:08:02.989Z,1033.52
2019-02-24T01:09:02.867Z,1033.53
2019-02-24T01:10:02.874Z,1033.48
2019-02-24T01:11:02.777Z,1033.51
2019-02-24T01:12:02.748Z,1033.52
2019-02-24T01:13:02.628Z,1033.47
2019-02-24T01:14:02.629Z,1033.47
2019-02-24T01:15:02.626Z,1033.49
2019-02-24T01:16:02.514Z,1033.46
2019-02-24T01:17:02.510Z,1033.43
2019-02-24T01:18:02.388Z,1033.45
2019-02-24T01:19:02.384Z,1033.51
2019-02-24T01:20:02.386Z,1033.50
2019-02-24T01:21:02.266Z,1033.52
2019-02-24T01:22:02.272Z,1033.54
2019-02-24T01:23:02.143Z,1033.50
2019-02-24T01:24:02.144Z,1033.50
2019-02-24T01:25:02.106Z,1033.54
2019-02-24T01:26:02.023Z,1033.52
2019-02-24T01:27:02.021Z,1033.52
2019-02-24T01:28:01.915Z,1033.54
2019-02-24T01:29:01.904Z,1033.51
2019-02-24T01:30:01.816Z,1033.51
2019-02-24T01:31:01.795Z,1033.54
2019-02-24T01:32:01.781Z,1033.54
2019-02-24T01:33:01.662Z,1033.49
2019-02-24T01:34:01.660Z,1033.46
2019-02-24T01:35:01.540Z,1033.49
2019-02-24T01:36:01.542Z,1033.46
2019-02-24T01:37:01.425Z,1033.48
2019-02-24T01:38:01.423Z,1033.43
2019-02-24T01:39:01.420Z,1033.42
2019-02-24T01:40:01.298Z,1033.38
2019-02-24T01:41:01.304Z,1033.40
2019-02-24T01:42:01.180Z,1033.44
2019-02-24T01:43:01.185Z,1033.43
2019-02-24T01:44:01.177Z,1033.43
2019-02-24T01:45:01.064Z,1033.44
2019-02-24T01:46:01.060Z,1033.43
2019-02-24T01:47:00.940Z,1033.43
2019-02-24T01:48:00.953Z,1033.40
2019-02-24T01:49:00.822Z,1033.46
2019-02-24T01:50:00.820Z,1033.44
2019-02-24T01:51:00.824Z,1033.44
2019-02-24T01:52:00.701Z,1033.41
2019-02-24T01:53:00.695Z,1033.44
2019-02-24T01:54:00.579Z,1033.44
2019-02-24T01:55:00.621Z,1033.40
2019-02-24T01:56:00.462Z,1033.41
2019-02-24T01:57:00.457Z,1033.42
2019-02-24T01:58:00.457Z,1033.43
2019-02-24T01:59:00.337Z,1033.39
2019-02-24T02:00:00.336Z,1033.41
2019-02-24T02:01:00.214Z,1033.40
2019-02-24T02:02:00.216Z,1033.40
2019-02-24T02:03:00.232Z,1033.42
2019-02-24T02:04:00.108Z,1033.40
2019-02-24T02:05:00.279Z,1033.42
2019-02-24T02:05:59.985Z,1033.44
2019-02-24T02:06:59.981Z,1033.39
2019-02-24T02:07:59.856Z,1033.40
2019-02-24T02:08:59.864Z,1033.36
2019-02-24T02:09:59.856Z,1033.36
2019-02-24T02:10:59.738Z,1033.36
2019-02-24T02:11:59.778Z,1033.34
2019-02-24T02:12:59.630Z,1033.30
2019-02-24T02:13:59.618Z,1033.34
2019-02-24T02:14:59.576Z,1033.32
2019-02-24T02:15:59.497Z,1033.29
2019-02-24T02:16:59.491Z,1033.28
2019-02-24T02:17:59.371Z,1033.30
2019-02-24T02:18:59.388Z,1033.29
2019-02-24T02:19:59.260Z,1033.29
2019-02-24T02:20:59.252Z,1033.30
2019-02-24T02:21:59.269Z,1033.29
2019-02-24T02:22:59.148Z,1033.27
2019-02-24T02:23:59.134Z,1033.27
2019-02-24T02:24:59.011Z,1033.24
2019-02-24T02:25:59.015Z,1033.25
2019-02-24T02:26:58.892Z,1033.24
2019-02-24T02:27:58.890Z,1033.23
2019-02-24T02:28:58.893Z,1033.19
2019-02-24T02:29:58.772Z,1033.21
2019-02-24T02:30:58.773Z,1033.21
2019-02-24T02:31:58.650Z,1033.19
2019-02-24T02:32:58.654Z,1033.17
2019-02-24T02:33:58.530Z,1033.22
2019-02-24T02:34:58.529Z,1033.22
2019-02-24T02:35:58.537Z,1033.24
2019-02-24T02:36:58.409Z,1033.22
2019-02-24T02:37:58.409Z,1033.28
2019-02-24T02:38:58.289Z,1033.20
2019-02-24T02:39:58.296Z,1033.26
2019-02-24T02:40:58.287Z,1033.27
2019-02-24T02:41:58.168Z,1033.24
2019-02-24T02:42:58.169Z,1033.26
2019-02-24T02:43:58.049Z,1033.28
2019-02-24T02:44:58.055Z,1033.31
2019-02-24T02:45:57.928Z,1033.27
2019-02-24T02:46:57.927Z,1033.29
2019-02-24T02:47:57.926Z,1033.29
2019-02-24T02:48:57.810Z,1033.29
2019-02-24T02:49:57.819Z,1033.31
2019-02-24T02:50:57.691Z,1033.32
2019-02-24T02:51:57.686Z,1033.31
2019-02-24T02:52:57.565Z,1033.25
2019-02-24T02:53:57.577Z,1033.37
2019-02-24T02:54:57.570Z,1033.33
2019-02-24T02:55:57.444Z,1033.33
2019-02-24T02:56:57.448Z,1033.35
2019-02-24T02:57:57.326Z,1033.31
2019-02-24T02:58:57.328Z,1033.27
2019-02-24T02:59:57.330Z,1033.25
2019-02-24T03:00:57.202Z,1033.25
2019-02-24T03:01:57.203Z,1033.24
2019-02-24T03:02:57.094Z,1033.23
2019-02-24T03:03:57.081Z,1033.27
2019-02-24T03:04:57.053Z,1033.27
2019-02-24T03:05:56.966Z,1033.26
2019-02-24T03:06:56.965Z,1033.26
2019-02-24T03:07:56.856Z,1033.25
2019-02-24T03:08:56.840Z,1033.28
2019-02-24T03:09:56.729Z,1033.28
2019-02-24T03:10:56.722Z,1033.32
2019-02-24T03:11:56.602Z,1033.33
2019-02-24T03:12:56.599Z,1033.29
2019-02-24T03:13:56.603Z,1033.29
2019-02-24T03:14:56.493Z,1033.29
2019-02-24T03:15:56.479Z,1033.27
2019-02-24T03:16:56.358Z,1033.33
2019-02-24T03:17:56.358Z,1033.29
2019-02-24T03:18:56.323Z,1033.34
2019-02-24T03:19:56.239Z,1033.32
2019-02-24T03:20:56.246Z,1033.34
2019-02-24T03:21:56.118Z,1033.31
2019-02-24T03:22:56.221Z,1033.34
2019-02-24T03:23:56.006Z,1033.31
2019-02-24T03:24:56.082Z,1033.32
2019-02-24T03:25:55.997Z,1033.28
2019-02-24T03:26:55.877Z,1033.28
2019-02-24T03:27:55.877Z,1033.26
2019-02-24T03:29:03.884Z,1033.26
2019-02-24T03:29:55.764Z,1033.28
2019-02-24T03:30:55.637Z,1033.32
2019-02-24T03:31:55.646Z,1033.31
2019-02-24T03:32:55.644Z,1033.28
2019-02-24T03:33:55.517Z,1033.32
2019-02-24T03:34:55.517Z,1033.31
2019-02-24T03:35:55.396Z,1033.29
2019-02-24T03:36:55.399Z,1033.29
2019-02-24T03:37:55.400Z,1033.24
2019-02-24T03:38:55.274Z,1033.22
2019-02-24T03:39:55.276Z,1033.27
2019-02-24T03:40:55.154Z,1033.24
2019-02-24T03:41:55.156Z,1033.23
2019-02-24T03:42:55.032Z,1033.25
2019-02-24T03:43:55.034Z,1033.26
2019-02-24T03:44:55.028Z,1033.28
2019-02-24T03:45:54.926Z,1033.27
2019-02-24T03:46:54.916Z,1033.33
2019-02-24T03:47:54.799Z,1033.33
2019-02-24T03:48:54.799Z,1033.29
2019-02-24T03:49:54.680Z,1033.30
2019-02-24T03:50:54.676Z,1033.32
2019-02-24T03:51:54.674Z,1033.33
2019-02-24T03:52:54.551Z,1033.35
2019-02-24T03:53:54.552Z,1033.34
2019-02-24T03:54:54.440Z,1033.37
2019-02-24T03:55:54.513Z,1033.41
2019-02-24T03:56:54.317Z,1033.39
2019-02-24T03:57:54.325Z,1033.38
2019-02-24T03:58:54.314Z,1033.39
2019-02-24T03:59:54.202Z,1033.38
2019-02-24T04:00:54.204Z,1033.35
2019-02-24T04:01:54.071Z,1033.41
2019-02-24T04:02:54.068Z,1033.41
2019-02-24T04:03:53.953Z,1033.41
2019-02-24T04:04:53.946Z,1033.44
2019-02-24T04:05:53.952Z,1033.41
2019-02-24T04:06:53.829Z,1033.39
2019-02-24T04:07:53.830Z,1033.40
2019-02-24T04:08:53.713Z,1033.42
2019-02-24T04:09:53.706Z,1033.40
2019-02-24T04:10:53.675Z,1033.40
2019-02-24T04:11:53.587Z,1033.42
2019-02-24T04:12:53.588Z,1033.45
2019-02-24T04:13:53.470Z,1033.45
2019-02-24T04:14:53.466Z,1033.42
2019-02-24T04:15:53.344Z,1033.46
2019-02-24T04:16:53.350Z,1033.47
2019-02-24T04:17:53.344Z,1033.48
2019-02-24T04:18:53.225Z,1033.52
2019-02-24T04:19:53.226Z,1033.51
2019-02-24T04:20:53.116Z,1033.57
2019-02-24T04:21:53.110Z,1033.59
2019-02-24T04:22:52.985Z,1033.63
2019-02-24T04:23:52.986Z,1033.62
2019-02-24T04:24:52.987Z,1033.63
2019-02-24T04:25:52.863Z,1033.65
2019-02-24T04:26:52.865Z,1033.62
2019-02-24T04:27:52.742Z,1033.60
2019-02-24T04:28:52.744Z,1033.56
2019-02-24T04:29:52.632Z,1033.59
2019-02-24T04:30:52.622Z,1033.55
2019-02-24T04:31:52.629Z,1033.57
2019-02-24T04:32:52.514Z,1033.55
2019-02-24T04:33:52.503Z,1033.54
2019-02-24T04:34:52.402Z,1033.52
2019-02-24T04:35:52.381Z,1033.55
2019-02-24T04:36:52.265Z,1033.56
2019-02-24T04:37:52.268Z,1033.54
2019-02-24T04:38:52.274Z,1033.58
2019-02-24T04:39:52.141Z,1033.55
2019-02-24T04:40:52.155Z,1033.56
2019-02-24T04:41:52.022Z,1033.58
2019-02-24T04:42:52.019Z,1033.57
2019-02-24T04:43:52.016Z,1033.60
2019-02-24T04:44:51.900Z,1033.59
2019-02-24T04:45:51.900Z,1033.56
2019-02-24T04:46:51.793Z,1033.55
2019-02-24T04:47:51.783Z,1033.55
2019-02-24T04:48:51.675Z,1033.55
2019-02-24T04:49:51.661Z,1033.54
2019-02-24T04:50:51.662Z,1033.54
2019-02-24T04:51:51.541Z,1033.54
2019-02-24T04:52:51.537Z,1033.57
2019-02-24T04:53:51.435Z,1033.57
2019-02-24T04:54:51.422Z,1033.59
2019-02-24T04:55:51.297Z,1033.59
2019-02-24T04:56:51.304Z,1033.61
2019-02-24T04:57:51.338Z,1033.62
2019-02-24T04:58:51.181Z,1033.62
2019-02-24T04:59:51.180Z,1033.61
2019-02-24T05:00:51.060Z,1033.61
2019-02-24T05:01:51.057Z,1033.64
2019-02-24T05:02:50.937Z,1033.68
2019-02-24T05:03:50.939Z,1033.70
2019-02-24T05:04:50.944Z,1033.72
2019-02-24T05:05:50.818Z,1033.75
2019-02-24T05:06:50.823Z,1033.72
2019-02-24T05:07:50.710Z,1033.73
2019-02-24T05:08:50.694Z,1033.74
2019-02-24T05:09:50.580Z,1033.76
2019-02-24T05:10:50.581Z,1033.72
2019-02-24T05:11:50.585Z,1033.75
2019-02-24T05:12:50.465Z,1033.72
2019-02-24T05:13:50.460Z,1033.69
2019-02-24T05:14:50.332Z,1033.65
2019-02-24T05:15:50.335Z,1033.72
2019-02-24T05:16:50.330Z,1033.67
2019-02-24T05:17:50.214Z,1033.67
2019-02-24T05:18:50.214Z,1033.66
2019-02-24T05:19:50.095Z,1033.64
2019-02-24T05:20:50.092Z,1033.63
2019-02-24T05:21:49.981Z,1033.64
2019-02-24T05:22:49.977Z,1033.64
2019-02-24T05:23:49.935Z,1033.60
2019-02-24T05:24:49.856Z,1033.59
2019-02-24T05:25:49.863Z,1033.61
2019-02-24T05:26:49.736Z,1033.61
2019-02-24T05:27:49.732Z,1033.60
2019-02-24T05:28:49.614Z,1033.62
2019-02-24T05:29:49.615Z,1033.62
2019-02-24T05:30:49.620Z,1033.61
2019-02-24T05:31:49.495Z,1033.61
2019-02-24T05:32:49.498Z,1033.62
2019-02-24T05:33:49.379Z,1033.65
2019-02-24T05:34:49.378Z,1033.64
2019-02-24T05:35:49.248Z,1033.62
2019-02-24T05:36:49.251Z,1033.61
2019-02-24T05:37:49.251Z,1033.57
2019-02-24T05:38:49.130Z,1033.57
2019-02-24T05:39:49.131Z,1033.55
2019-02-24T05:40:49.008Z,1033.54
2019-02-24T05:41:49.013Z,1033.52
2019-02-24T05:42:48.892Z,1033.53
2019-02-24T05:43:48.888Z,1033.50
2019-02-24T05:44:48.902Z,1033.49
2019-02-24T05:45:48.769Z,1033.46
2019-02-24T05:46:48.777Z,1033.44
2019-02-24T05:47:48.651Z,1033.42
2019-02-24T05:48:48.650Z,1033.44
2019-02-24T05:49:48.531Z,1033.46
2019-02-24T05:50:48.525Z,1033.42
2019-02-24T05:51:48.532Z,1033.40
2019-02-24T05:52:48.410Z,1033.37
2019-02-24T05:53:48.407Z,1033.39
2019-02-24T05:54:48.287Z,1033.39
2019-02-24T05:55:48.330Z,1033.36
2019-02-24T05:56:48.167Z,1033.37
2019-02-24T05:57:48.178Z,1033.36
2019-02-24T05:58:48.168Z,1033.37
2019-02-24T05:59:55.049Z,1033.36
2019-02-24T06:00:48.054Z,1033.38
2019-02-24T06:01:47.928Z,1033.37
2019-02-24T06:02:47.930Z,1033.34
2019-02-24T06:03:47.808Z,1033.34
2019-02-24T06:04:47.804Z,1033.34
2019-02-24T06:05:47.807Z,1033.35
2019-02-24T06:06:47.681Z,1033.36
2019-02-24T06:07:47.684Z,1033.35
2019-02-24T06:08:47.564Z,1033.33
2019-02-24T06:09:47.571Z,1033.34
2019-02-24T06:10:47.562Z,1033.37
2019-02-24T06:11:47.441Z,1033.39
2019-02-24T06:12:47.443Z,1033.40
2019-02-24T06:13:47.322Z,1033.40
2019-02-24T06:14:47.320Z,1033.37
2019-02-24T06:15:47.201Z,1033.40
2019-02-24T06:16:47.208Z,1033.40
2019-02-24T06:17:47.204Z,1033.42
2019-02-24T06:18:47.082Z,1033.36
2019-02-24T06:19:47.082Z,1033.40
2019-02-24T06:20:46.988Z,1033.41
2019-02-24T06:21:46.958Z,1033.41
2019-02-24T06:22:46.841Z,1033.41
2019-02-24T06:23:46.838Z,1033.39
2019-02-24T06:24:46.842Z,1033.39
2019-02-24T06:25:46.750Z,1033.35
2019-02-24T06:26:46.719Z,1033.36
2019-02-24T06:27:46.598Z,1033.35
2019-02-24T06:28:46.598Z,1033.36
2019-02-24T06:29:46.480Z,1033.34
2019-02-24T06:30:46.485Z,1033.30
2019-02-24T06:31:46.477Z,1033.33
2019-02-24T06:32:46.362Z,1033.34
2019-02-24T06:33:46.362Z,1033.34
2019-02-24T06:34:46.236Z,1033.40
2019-02-24T06:35:46.236Z,1033.41
2019-02-24T06:36:46.116Z,1033.46
2019-02-24T06:37:46.118Z,1033.48
2019-02-24T06:38:46.124Z,1033.50
2019-02-24T06:39:46.013Z,1033.52
2019-02-24T06:40:45.994Z,1033.55
2019-02-24T06:41:45.882Z,1033.56
2019-02-24T06:42:45.874Z,1033.56
2019-02-24T06:43:45.760Z,1033.57
2019-02-24T06:44:45.758Z,1033.59
2019-02-24T06:45:45.758Z,1033.62
2019-02-24T06:46:45.642Z,1033.58
2019-02-24T06:47:45.638Z,1033.60
2019-02-24T06:48:45.519Z,1033.63
2019-02-24T06:49:45.518Z,1033.64
2019-02-24T06:50:45.396Z,1033.63
2019-02-24T06:51:45.401Z,1033.64
2019-02-24T06:52:45.398Z,1033.62
2019-02-24T06:53:45.278Z,1033.54
2019-02-24T06:54:45.272Z,1033.49
2019-02-24T06:55:45.159Z,1033.50
2019-02-24T06:56:45.157Z,1033.46
2019-02-24T06:57:45.114Z,1033.46
2019-02-24T06:58:45.031Z,1033.46
2019-02-24T06:59:45.032Z,1033.45
2019-02-24T07:00:44.913Z,1033.48
2019-02-24T07:01:44.919Z,1033.44
2019-02-24T07:02:44.790Z,1033.43
2019-02-24T07:03:44.789Z,1033.41
2019-02-24T07:04:44.798Z,1033.40
2019-02-24T07:05:44.680Z,1033.47
2019-02-24T07:06:44.673Z,1033.44
2019-02-24T07:07:44.553Z,1033.44
2019-02-24T07:08:44.550Z,1033.43
2019-02-24T07:09:44.436Z,1033.44
2019-02-24T07:10:44.432Z,1033.47
2019-02-24T07:11:44.442Z,1033.44
2019-02-24T07:12:44.329Z,1033.37
2019-02-24T07:13:44.324Z,1033.39
2019-02-24T07:14:44.196Z,1033.39
2019-02-24T07:15:44.188Z,1033.40
2019-02-24T07:16:44.152Z,1033.39
2019-02-24T07:17:44.074Z,1033.35
2019-02-24T07:18:44.069Z,1033.39
2019-02-24T07:19:43.963Z,1033.31
2019-02-24T07:20:43.946Z,1033.37
2019-02-24T07:21:43.832Z,1033.41
2019-02-24T07:22:43.827Z,1033.39
2019-02-24T07:23:43.708Z,1033.36
2019-02-24T07:24:43.709Z,1033.39
2019-02-24T07:25:43.707Z,1033.34
2019-02-24T07:26:43.590Z,1033.39
2019-02-24T07:27:43.588Z,1033.46
2019-02-24T07:28:43.464Z,1033.45
2019-02-24T07:29:43.475Z,1033.47
2019-02-24T07:30:43.436Z,1033.52
2019-02-24T07:31:43.347Z,1033.58
2019-02-24T07:32:43.355Z,1033.62
2019-02-24T07:33:43.231Z,1033.60
2019-02-24T07:34:43.227Z,1033.66
2019-02-24T07:35:43.109Z,1033.71
2019-02-24T07:36:43.106Z,1033.72
2019-02-24T07:37:43.109Z,1033.74
2019-02-24T07:38:42.988Z,1033.81
2019-02-24T07:39:42.984Z,1033.80
2019-02-24T07:40:42.870Z,1033.83
2019-02-24T07:41:42.869Z,1033.87
2019-02-24T07:42:42.743Z,1033.92
2019-02-24T07:43:42.748Z,1033.87
2019-02-24T07:44:42.753Z,1033.94
2019-02-24T07:45:42.623Z,1033.93
2019-02-24T07:46:42.627Z,1033.90
2019-02-24T07:47:42.507Z,1033.89
2019-02-24T07:48:42.514Z,1033.90
2019-02-24T07:49:42.499Z,1033.89
2019-02-24T07:50:42.382Z,1033.88
2019-02-24T07:51:42.395Z,1033.92
2019-02-24T07:52:42.266Z,1033.91
2019-02-24T07:53:42.264Z,1033.95
2019-02-24T07:54:42.143Z,1033.96
2019-02-24T07:55:42.139Z,1033.96
2019-02-24T07:56:42.144Z,1033.95
2019-02-24T07:57:42.019Z,1033.94
2019-02-24T07:58:42.020Z,1033.99
2019-02-24T07:59:41.901Z,1033.98
2019-02-24T08:00:41.902Z,1033.96
2019-02-24T08:01:42.578Z,1034.01
2019-02-24T08:02:41.783Z,1034.02
2019-02-24T08:03:41.780Z,1034.03
2019-02-24T08:04:41.659Z,1034.04
2019-02-24T08:05:41.657Z,1034.07
2019-02-24T08:06:41.667Z,1034.12
2019-02-24T08:07:41.539Z,1034.13
2019-02-24T08:08:41.548Z,1034.14
2019-02-24T08:09:41.427Z,1034.13
2019-02-24T08:10:41.417Z,1034.18
2019-02-24T08:11:41.299Z,1034.22
2019-02-24T08:12:41.308Z,1034.21
2019-02-24T08:13:41.300Z,1034.26
2019-02-24T08:14:41.181Z,1034.27
2019-02-24T08:15:41.177Z,1034.25
2019-02-24T08:16:41.056Z,1034.26
2019-02-24T08:17:41.062Z,1034.33
2019-02-24T08:18:49.051Z,1034.32
2019-02-24T08:19:40.935Z,1034.29
2019-02-24T08:20:40.949Z,1034.28
2019-02-24T08:21:40.820Z,1034.30
2019-02-24T08:22:40.814Z,1034.28
2019-02-24T08:23:40.695Z,1034.30
2019-02-24T08:24:40.693Z,1034.33
2019-02-24T08:25:40.699Z,1034.32
2019-02-24T08:26:40.573Z,1034.38
2019-02-24T08:27:40.573Z,1034.40
2019-02-24T08:28:40.454Z,1034.41
2019-02-24T08:29:40.457Z,1034.44
2019-02-24T08:30:41.842Z,1034.43
2019-02-24T08:31:40.335Z,1034.42
2019-02-24T08:32:40.331Z,1034.47
2019-02-24T08:33:40.213Z,1034.46
2019-02-24T08:34:40.213Z,1034.50
2019-02-24T08:35:40.172Z,1034.47
2019-02-24T08:36:40.103Z,1034.53
2019-02-24T08:37:40.091Z,1034.53
2019-02-24T08:38:40.500Z,1034.58
2019-02-24T08:39:39.973Z,1034.58
2019-02-24T08:40:39.934Z,1034.58
2019-02-24T08:41:39.852Z,1034.58
2019-02-24T08:42:39.855Z,1034.57
2019-02-24T08:43:39.733Z,1034.59
2019-02-24T08:44:39.734Z,1034.59
2019-02-24T08:45:39.616Z,1034.60
2019-02-24T08:46:39.608Z,1034.57
2019-02-24T08:47:42.609Z,1034.57
2019-02-24T08:48:39.488Z,1034.64
2019-02-24T08:49:39.490Z,1034.66
2019-02-24T08:50:39.367Z,1034.65
2019-02-24T08:51:39.374Z,1034.68
2019-02-24T08:52:39.371Z,1034.64
2019-02-24T08:53:39.249Z,1034.69
2019-02-24T08:54:39.252Z,1034.67
2019-02-24T08:55:39.129Z,1034.63
2019-02-24T08:56:39.128Z,1034.70
2019-02-24T08:57:39.125Z,1034.74
2019-02-24T08:58:39.018Z,1034.77
2019-02-24T08:59:39.013Z,1034.77
2019-02-24T09:00:38.895Z,1034.79
2019-02-24T09:01:38.885Z,1034.78
2019-02-24T09:02:38.885Z,1034.83
2019-02-24T09:03:38.770Z,1034.77
2019-02-24T09:04:38.767Z,1034.76
2019-02-24T09:05:38.642Z,1034.72
2019-02-24T09:06:38.651Z,1034.72
2019-02-24T09:07:38.651Z,1034.69
2019-02-24T09:08:38.532Z,1034.69
2019-02-24T09:09:38.529Z,1034.70
2019-02-24T09:10:38.410Z,1034.69
2019-02-24T09:11:38.406Z,1034.68
2019-02-24T09:12:38.406Z,1034.65
2019-02-24T09:13:38.282Z,1034.60
2019-02-24T09:14:38.284Z,1034.56
2019-02-24T09:15:38.167Z,1034.57
2019-02-24T09:16:38.171Z,1034.55
2019-02-24T09:17:38.176Z,1034.54
2019-02-24T09:18:38.045Z,1034.56
2019-02-24T09:19:38.060Z,1034.55
2019-02-24T09:20:38.007Z,1034.52
2019-02-24T09:21:37.926Z,1034.47
2019-02-24T09:22:37.920Z,1034.50
2019-02-24T09:23:37.805Z,1034.42
2019-02-24T09:24:37.798Z,1034.49
2019-02-24T09:25:37.684Z,1034.43
2019-02-24T09:26:37.683Z,1034.42
2019-02-24T09:27:37.681Z,1034.47
2019-02-24T09:28:37.559Z,1034.45
2019-02-24T09:29:37.559Z,1034.47
2019-02-24T09:30:37.438Z,1034.52
2019-02-24T09:31:37.439Z,1034.53
2019-02-24T09:32:37.439Z,1034.50
2019-02-24T09:33:37.321Z,1034.57
2019-02-24T09:34:37.322Z,1034.55
2019-02-24T09:35:37.313Z,1034.53
2019-02-24T09:36:37.204Z,1034.57
2019-02-24T09:37:37.200Z,1034.58
2019-02-24T09:38:37.077Z,1034.59
2019-02-24T09:39:37.076Z,1034.62
2019-02-24T09:40:37.077Z,1034.60
2019-02-24T09:41:36.956Z,1034.62
2019-02-24T09:42:36.960Z,1034.62
2019-02-24T09:43:36.836Z,1034.66
2019-02-24T09:44:36.839Z,1034.65
2019-02-24T09:45:36.838Z,1034.65
2019-02-24T09:46:36.723Z,1034.67
2019-02-24T09:47:46.078Z,1034.67
2019-02-24T09:48:36.594Z,1034.67
2019-02-24T09:49:36.600Z,1034.69
2019-02-24T09:50:36.594Z,1034.72
2019-02-24T09:51:36.475Z,1034.71
2019-02-24T09:52:36.474Z,1034.70
2019-02-24T09:53:36.353Z,1034.72
2019-02-24T09:54:36.364Z,1034.71
2019-02-24T09:55:36.353Z,1034.71
2019-02-24T09:56:36.233Z,1034.68
2019-02-24T09:57:37.093Z,1034.72
2019-02-24T09:58:36.232Z,1034.73
2019-02-24T09:59:36.113Z,1034.68
2019-02-24T10:00:36.120Z,1034.72
2019-02-24T10:01:35.992Z,1034.74
2019-02-24T10:02:35.991Z,1034.73
2019-02-24T10:03:36.003Z,1034.71
2019-02-24T10:04:35.873Z,1034.75
2019-02-24T10:05:35.878Z,1034.74
2019-02-24T10:06:35.754Z,1034.77
2019-02-24T10:07:35.757Z,1034.74
2019-02-24T10:08:35.758Z,1034.78
2019-02-24T10:09:35.690Z,1034.81
2019-02-24T10:10:35.634Z,1034.77
2019-02-24T10:11:35.591Z,1034.76
2019-02-24T10:12:35.519Z,1034.73
2019-02-24T10:13:35.509Z,1034.71
2019-02-24T10:14:35.388Z,1034.75
2019-02-24T10:15:35.392Z,1034.77
2019-02-24T10:16:35.388Z,1034.77
2019-02-24T10:17:35.266Z,1034.81
2019-02-24T10:18:35.267Z,1034.76
2019-02-24T10:19:35.264Z,1034.75
2019-02-24T10:20:35.151Z,1034.75
2019-02-24T10:21:35.149Z,1034.74
2019-02-24T10:22:35.030Z,1034.71
2019-02-24T10:23:35.027Z,1034.75
2019-02-24T10:24:35.028Z,1034.72
2019-02-24T10:25:34.907Z,1034.72
2019-02-24T10:26:34.905Z,1034.73
2019-02-24T10:27:34.787Z,1034.73
2019-02-24T10:28:34.795Z,1034.80
2019-02-24T10:29:34.786Z,1034.80
2019-02-24T10:30:34.681Z,1034.79
2019-02-24T10:31:34.670Z,1034.83
2019-02-24T10:32:34.544Z,1034.84
2019-02-24T10:33:34.546Z,1034.83
2019-02-24T10:34:34.548Z,1034.82
2019-02-24T10:35:34.426Z,1034.78
2019-02-24T10:36:34.428Z,1034.77
2019-02-24T10:37:34.440Z,1034.76
2019-02-24T10:38:34.306Z,1034.78
2019-02-24T10:39:34.302Z,1034.77
2019-02-24T10:40:34.183Z,1034.75
2019-02-24T10:41:34.182Z,1034.74
2019-02-24T10:42:34.186Z,1034.72
2019-02-24T10:43:34.061Z,1034.72
2019-02-24T10:44:34.062Z,1034.71
2019-02-24T10:45:34.067Z,1034.72
2019-02-24T10:46:33.948Z,1034.70
2019-02-24T10:47:33.942Z,1034.70
2019-02-24T10:48:33.821Z,1034.70
2019-02-24T10:49:33.821Z,1034.70
2019-02-24T10:50:33.824Z,1034.72
2019-02-24T10:51:33.699Z,1034.72
2019-02-24T10:52:33.707Z,1034.73
2019-02-24T10:53:33.708Z,1034.73
2019-02-24T10:54:33.584Z,1034.69
2019-02-24T10:55:33.583Z,1034.72
2019-02-24T10:56:33.547Z,1034.74
2019-02-24T10:57:33.464Z,1034.73
2019-02-24T10:58:34.919Z,1034.69
2019-02-24T10:59:33.340Z,1034.71
2019-02-24T11:00:33.340Z,1034.68
2019-02-24T11:01:33.341Z,1034.71
2019-02-24T11:02:33.219Z,1034.69
2019-02-24T11:03:33.228Z,1034.69
2019-02-24T11:04:33.096Z,1034.67
2019-02-24T11:05:33.110Z,1034.64
2019-02-24T11:06:33.142Z,1034.68
2019-02-24T11:07:32.984Z,1034.69
2019-02-24T11:08:32.979Z,1034.68
2019-02-24T11:09:32.977Z,1034.66
2019-02-24T11:10:32.856Z,1034.68
2019-02-24T11:11:32.861Z,1034.66
2019-02-24T11:12:32.737Z,1034.69
2019-02-24T11:13:32.748Z,1034.69
2019-02-24T11:14:32.738Z,1034.70
2019-02-24T11:15:32.616Z,1034.66
2019-02-24T11:16:32.614Z,1034.72
2019-02-24T11:17:32.617Z,1034.66
2019-02-24T11:18:32.495Z,1034.70
2019-02-24T11:19:32.502Z,1034.71
2019-02-24T11:20:32.380Z,1034.70
2019-02-24T11:21:32.382Z,1034.71
2019-02-24T11:22:35.012Z,1034.71
2019-02-24T11:23:32.253Z,1034.73
2019-02-24T11:24:32.254Z,1034.71
2019-02-24T11:25:32.258Z,1034.73
2019-02-24T11:26:32.133Z,1034.75
2019-02-24T11:27:32.220Z,1034.75
2019-02-24T11:28:32.017Z,1034.75
2019-02-24T11:29:32.028Z,1034.71
2019-02-24T11:30:32.012Z,1034.72
2019-02-24T11:31:38.202Z,1034.72
2019-02-24T11:32:31.892Z,1034.66
2019-02-24T11:33:31.890Z,1034.70
2019-02-24T11:34:31.778Z,1034.66
2019-02-24T11:35:31.769Z,1034.68
2019-02-24T11:36:31.657Z,1034.66
2019-02-24T11:37:32.447Z,1034.68
2019-02-24T11:38:31.650Z,1034.69
2019-02-24T11:39:31.534Z,1034.69
2019-02-24T11:40:31.538Z,1034.64
2019-02-24T11:41:31.533Z,1034.61
2019-02-24T11:42:31.408Z,1034.63
2019-02-24T11:43:31.408Z,1034.64
2019-02-24T11:44:31.369Z,1034.62
2019-02-24T11:45:31.287Z,1034.62
2019-02-24T11:46:31.293Z,1034.59
2019-02-24T11:47:31.168Z,1034.60
2019-02-24T11:48:31.169Z,1034.61
2019-02-24T11:49:31.168Z,1034.64
2019-02-24T11:50:31.177Z,1034.67
2019-02-24T11:51:31.055Z,1034.67
2019-02-24T11:52:31.010Z,1034.65
2019-02-24T11:53:30.933Z,1034.65
2019-02-24T11:54:30.926Z,1034.67
2019-02-24T11:55:31.371Z,1034.64
2019-02-24T11:56:30.810Z,1034.59
2019-02-24T11:57:30.802Z,1034.62
2019-02-24T11:58:30.698Z,1034.62
2019-02-24T11:59:30.690Z,1034.64
2019-02-24T12:00:30.688Z,1034.62
2019-02-24T12:01:30.567Z,1034.64
2019-02-24T12:02:34.449Z,1034.62
2019-02-24T12:03:30.444Z,1034.63
2019-02-24T12:04:30.448Z,1034.58